Time;durP1;ratioP1;P1;durP2;ratioP2;P2;SDS_P1;SDS_P2;PMS_P1;PMS_P2;Temp;Humidity;BMP_temperature;BMP_pressure;BME280_temperature;BME280_humidity;BME280_pressure;Samples;Min_cycle;Max_cycle;Signal;HPM_P1;HPM_P2
2023/04/06 00:00:30;;;;;;;;;;;3.50;56.70;;;;;;4072744;29;19919;-83
2023/04/06 00:02:30;;;;;;;;;;;3.50;56.60;;;;;;4066808;29;19907;-83
2023/04/06 00:04:31;;;;;;;;;;;3.60;56.60;;;;;;4066631;29;19918;-82
2023/04/06 00:06:32;;;;;;;;;;;3.50;56.50;;;;;;4064292;29;20487;-82
2023/04/06 00:08:32;;;;;;;;;;;3.50;56.40;;;;;;4052299;29;19998;-82
2023/04/06 00:10:33;;;;;;;;;;;3.50;56.30;;;;;;4067253;29;19918;-82
2023/04/06 00:12:34;;;;;;;;;;;3.50;56.30;;;;;;4068697;29;19911;-83
2023/04/06 00:14:35;;;;;;;;;;;3.60;56.50;;;;;;4066875;29;19922;-82
2023/04/06 00:16:35;;;;;;;;;;;3.50;56.40;;;;;;4054361;29;19916;-82
2023/04/06 00:18:36;;;;;;;;;;;3.60;56.60;;;;;;4054166;29;19911;-83
2023/04/06 00:20:37;;;;;;;;;;;3.50;56.40;;;;;;4071210;29;19939;-83
2023/04/06 00:22:37;;;;;;;;;;;3.50;56.80;;;;;;4067086;29;19919;-82
2023/04/06 00:24:38;;;;;;;;;;;3.50;56.40;;;;;;4069153;29;19970;-82
2023/04/06 00:26:39;;;;;;;;;;;3.50;56.20;;;;;;4052420;29;19963;-83
2023/04/06 00:28:40;;;;;;;;;;;3.50;56.90;;;;;;4072751;29;19997;-83
2023/04/06 00:30:41;;;;;;;;;;;3.50;56.80;;;;;;4071714;29;19934;-82
2023/04/06 00:32:41;;;;;;;;;;;3.50;56.90;;;;;;4073982;29;20321;-82
2023/04/06 00:34:42;;;;;;;;;;;3.40;56.80;;;;;;4069887;29;20195;-83
2023/04/06 00:36:43;;;;;;;;;;;3.50;56.80;;;;;;4060129;29;20029;-82
2023/04/06 00:38:43;;;;;;;;;;;3.40;56.90;;;;;;4056521;29;19936;-82
2023/04/06 00:40:47;;;;;;;;;;;3.50;57.40;;;;;;4070584;29;19922;-82
2023/04/06 00:42:50;;;;;;;;;;;3.50;57.10;;;;;;4070485;29;20271;-82
2023/04/06 00:45:00;;;;;;;;;;;3.40;57.10;;;;;;4053592;29;19915;-83
2023/04/06 00:47:01;;;;;;;;;;;3.50;56.90;;;;;;4076640;29;19990;-82
2023/04/06 00:49:01;;;;;;;;;;;3.50;56.60;;;;;;4067544;29;19990;-83
2023/04/06 00:51:02;;;;;;;;;;;3.40;57.00;;;;;;4070094;29;19929;-83
2023/04/06 00:53:03;;;;;;;;;;;3.40;56.70;;;;;;4067233;29;19958;-81
2023/04/06 00:55:04;;;;;;;;;;;3.40;57.20;;;;;;4053121;29;19920;-84
2023/04/06 00:57:05;;;;;;;;;;;3.40;57.00;;;;;;4057425;29;20309;-83
2023/04/06 00:59:05;;;;;;;;;;;3.40;57.00;;;;;;4052213;29;19915;-83
2023/04/06 01:01:06;;;;;;;;;;;3.50;56.50;;;;;;4052586;29;21268;-83
2023/04/06 01:03:07;;;;;;;;;;;3.40;56.30;;;;;;4038284;29;19947;-83
2023/04/06 01:05:08;;;;;;;;;;;3.50;56.70;;;;;;4051585;29;19923;-83
2023/04/06 01:07:09;;;;;;;;;;;3.40;56.60;;;;;;4069484;29;19918;-83
2023/04/06 01:09:10;;;;;;;;;;;3.40;56.40;;;;;;4069836;29;19935;-82
2023/04/06 01:11:10;;;;;;;;;;;3.40;56.50;;;;;;4069129;29;19911;-83
2023/04/06 01:13:11;;;;;;;;;;;3.40;56.60;;;;;;4053595;29;19962;-83
2023/04/06 01:15:12;;;;;;;;;;;3.40;56.50;;;;;;4049957;29;19912;-83
2023/04/06 01:17:12;;;;;;;;;;;3.40;56.30;;;;;;4067664;29;19971;-83
2023/04/06 01:19:13;;;;;;;;;;;3.40;56.30;;;;;;4050819;29;19935;-82
2023/04/06 01:21:16;;;;;;;;;;;3.40;56.90;;;;;;4068216;29;20310;-82
2023/04/06 01:23:17;;;;;;;;;;;3.40;56.20;;;;;;4068060;29;19919;-83
2023/04/06 01:25:18;;;;;;;;;;;3.40;56.20;;;;;;4069172;29;19946;-83
2023/04/06 01:27:19;;;;;;;;;;;3.30;56.30;;;;;;4047918;29;19918;-83
2023/04/06 01:29:19;;;;;;;;;;;3.30;56.40;;;;;;4067806;29;19907;-82
2023/04/06 01:31:20;;;;;;;;;;;3.40;56.10;;;;;;4070093;29;19958;-83
2023/04/06 01:33:20;;;;;;;;;;;3.30;56.10;;;;;;4068347;29;19934;-83
2023/04/06 01:35:21;;;;;;;;;;;3.30;56.10;;;;;;4053984;29;19927;-83
2023/04/06 01:37:22;;;;;;;;;;;3.30;56.20;;;;;;4051674;29;19923;-82
2023/04/06 01:39:22;;;;;;;;;;;3.30;56.10;;;;;;4066831;29;19943;-83
2023/04/06 01:41:23;;;;;;;;;;;3.20;56.00;;;;;;4062639;29;19917;-82
2023/04/06 01:43:24;;;;;;;;;;;3.30;55.70;;;;;;4068951;29;19919;-82
2023/04/06 01:45:25;;;;;;;;;;;3.20;55.90;;;;;;4066686;29;19935;-84
2023/04/06 01:47:25;;;;;;;;;;;3.20;56.20;;;;;;4051921;29;19912;-83
2023/04/06 01:49:26;;;;;;;;;;;3.20;56.10;;;;;;4046119;29;19919;-82
2023/04/06 01:51:27;;;;;;;;;;;3.20;55.90;;;;;;4064923;29;19926;-82
2023/04/06 01:53:27;;;;;;;;;;;3.20;55.80;;;;;;4069993;29;20013;-83
2023/04/06 01:55:28;;;;;;;;;;;3.10;55.70;;;;;;4069853;29;20512;-83
2023/04/06 01:57:28;;;;;;;;;;;3.10;55.60;;;;;;4071553;29;20013;-83
2023/04/06 01:59:29;;;;;;;;;;;3.10;55.60;;;;;;4058281;29;19926;-83
2023/04/06 02:01:30;;;;;;;;;;;3.00;55.60;;;;;;4071138;29;19983;-83
2023/04/06 02:03:31;;;;;;;;;;;3.10;55.70;;;;;;4053312;29;19919;-83
2023/04/06 02:05:41;;;;;;;;;;;3.00;55.70;;;;;;4054414;29;19915;-83
2023/04/06 02:07:42;;;;;;;;;;;3.00;55.50;;;;;;4069700;29;20032;-83
2023/04/06 02:09:42;;;;;;;;;;;3.00;55.60;;;;;;4072006;29;19981;-83
2023/04/06 02:11:43;;;;;;;;;;;3.00;55.80;;;;;;4078374;29;19961;-82
2023/04/06 02:13:44;;;;;;;;;;;3.00;55.90;;;;;;4061510;29;19912;-81
2023/04/06 02:15:45;;;;;;;;;;;3.00;55.80;;;;;;4059894;29;19982;-83
2023/04/06 02:17:45;;;;;;;;;;;3.00;55.70;;;;;;4073262;29;20000;-83
2023/04/06 02:19:46;;;;;;;;;;;3.00;55.60;;;;;;4071832;29;19983;-83
2023/04/06 02:21:47;;;;;;;;;;;2.90;55.60;;;;;;4055943;29;19919;-83
2023/04/06 02:23:49;;;;;;;;;;;2.90;55.60;;;;;;4059913;29;19915;-83
2023/04/06 02:25:50;;;;;;;;;;;2.80;55.50;;;;;;4057499;29;19922;-84
2023/04/06 02:27:50;;;;;;;;;;;2.80;55.40;;;;;;4057617;29;19908;-82
2023/04/06 02:29:51;;;;;;;;;;;2.80;55.30;;;;;;4071114;29;20339;-83
2023/04/06 02:31:51;;;;;;;;;;;2.70;55.30;;;;;;4056692;29;20026;-82
2023/04/06 02:33:52;;;;;;;;;;;2.80;55.40;;;;;;4057946;29;19935;-83
2023/04/06 02:35:53;;;;;;;;;;;2.80;55.30;;;;;;4072870;29;19926;-82
2023/04/06 02:37:53;;;;;;;;;;;2.70;55.30;;;;;;4072622;29;19919;-82
2023/04/06 02:39:54;;;;;;;;;;;2.70;55.40;;;;;;4069914;29;19982;-83
2023/04/06 02:41:55;;;;;;;;;;;2.60;55.30;;;;;;4070090;29;19919;-83
2023/04/06 02:44:02;;;;;;;;;;;2.60;55.30;;;;;;4071887;29;20397;-84
2023/04/06 02:46:03;;;;;;;;;;;2.60;55.40;;;;;;4056143;29;20010;-82
2023/04/06 02:48:03;;;;;;;;;;;2.50;55.40;;;;;;4069680;29;19950;-83
2023/04/06 02:50:04;;;;;;;;;;;2.50;55.40;;;;;;4052263;29;20014;-83
2023/04/06 02:52:05;;;;;;;;;;;2.40;55.40;;;;;;4075255;29;19923;-83
2023/04/06 02:54:06;;;;;;;;;;;2.50;55.50;;;;;;4059224;29;20366;-84
2023/04/06 02:56:07;;;;;;;;;;;2.50;55.40;;;;;;4074659;29;19922;-83
2023/04/06 02:58:07;;;;;;;;;;;2.40;55.40;;;;;;4069579;29;19915;-82
2023/04/06 03:00:08;;;;;;;;;;;2.40;55.60;;;;;;4071804;29;19926;-83
2023/04/06 03:02:09;;;;;;;;;;;2.30;55.50;;;;;;4075549;29;19949;-81
2023/04/06 03:04:10;;;;;;;;;;;2.30;55.60;;;;;;4074627;29;19910;-81
2023/04/06 03:06:11;;;;;;;;;;;2.40;55.60;;;;;;4056535;29;19923;-82
2023/04/06 03:08:12;;;;;;;;;;;2.30;55.60;;;;;;4071272;29;19921;-83
2023/04/06 03:10:12;;;;;;;;;;;2.20;55.60;;;;;;4071743;29;19950;-82
2023/04/06 03:12:13;;;;;;;;;;;2.20;55.60;;;;;;4069961;29;19921;-82
2023/04/06 03:14:14;;;;;;;;;;;2.20;55.70;;;;;;4069606;29;19978;-82
2023/04/06 03:16:15;;;;;;;;;;;2.20;55.60;;;;;;4064437;29;20023;-82
2023/04/06 03:18:18;;;;;;;;;;;2.10;55.70;;;;;;4049823;29;19911;-81
2023/04/06 03:20:18;;;;;;;;;;;2.20;55.70;;;;;;4065989;29;20010;-83
2023/04/06 03:22:19;;;;;;;;;;;2.10;55.70;;;;;;4050277;29;19923;-83
2023/04/06 03:24:20;;;;;;;;;;;2.10;55.70;;;;;;4067218;29;19974;-83
2023/04/06 03:26:22;;;;;;;;;;;2.00;55.80;;;;;;4053906;29;19912;-83
2023/04/06 03:28:22;;;;;;;;;;;2.00;55.80;;;;;;4067913;29;19987;-83
2023/04/06 03:30:23;;;;;;;;;;;2.10;55.90;;;;;;4068829;29;20610;-82
2023/04/06 03:32:23;;;;;;;;;;;1.90;55.80;;;;;;4055173;29;19915;-83
2023/04/06 03:34:24;;;;;;;;;;;2.00;55.80;;;;;;4054966;29;19935;-82
2023/04/06 03:36:27;;;;;;;;;;;2.00;55.80;;;;;;4069981;29;20010;-82
2023/04/06 03:38:28;;;;;;;;;;;1.90;55.80;;;;;;4065985;29;19916;-82
2023/04/06 03:40:28;;;;;;;;;;;2.00;55.80;;;;;;4067312;29;19929;-83
2023/04/06 03:42:30;;;;;;;;;;;1.90;55.80;;;;;;4070275;29;19965;-83
2023/04/06 03:44:31;;;;;;;;;;;1.80;55.70;;;;;;4038725;29;19955;-82
2023/04/06 03:46:32;;;;;;;;;;;1.80;55.70;;;;;;4057608;29;19911;-83
2023/04/06 03:48:32;;;;;;;;;;;1.80;55.70;;;;;;4073996;29;20006;-83
2023/04/06 03:50:34;;;;;;;;;;;1.80;55.80;;;;;;4070572;29;19911;-83
2023/04/06 03:52:34;;;;;;;;;;;1.80;55.90;;;;;;4071285;29;19926;-84
2023/04/06 03:54:37;;;;;;;;;;;1.70;55.80;;;;;;4069303;29;20393;-83
2023/04/06 03:56:38;;;;;;;;;;;1.70;55.90;;;;;;4054068;29;19915;-83
2023/04/06 03:58:38;;;;;;;;;;;1.80;56.10;;;;;;4053488;29;19922;-82
2023/04/06 04:00:39;;;;;;;;;;;1.70;56.10;;;;;;4069430;29;19926;-83
2023/04/06 04:02:40;;;;;;;;;;;1.70;56.30;;;;;;4070610;29;19915;-83
2023/04/06 04:04:40;;;;;;;;;;;1.60;56.20;;;;;;4054628;29;20000;-83
2023/04/06 04:06:41;;;;;;;;;;;1.60;56.10;;;;;;4070902;29;19919;-83
2023/04/06 04:08:41;;;;;;;;;;;1.60;56.30;;;;;;4072145;29;19915;-83
2023/04/06 04:10:42;;;;;;;;;;;1.60;56.00;;;;;;4073069;29;19949;-83
2023/04/06 04:13:03;;;;;;;;;;;1.60;56.00;;;;;;4070231;29;19915;-82
2023/04/06 04:15:23;;;;;;;;;;;1.50;56.00;;;;;;4069443;29;19969;-83
2023/04/06 04:17:46;;;;;;;;;;;1.50;56.20;;;;;;4069144;29;20001;-83
2023/04/06 04:19:47;;;;;;;;;;;1.50;56.50;;;;;;4070407;29;19914;-83
2023/04/06 04:21:47;;;;;;;;;;;1.50;56.50;;;;;;4070042;29;19911;-81
2023/04/06 04:24:08;;;;;;;;;;;1.40;56.40;;;;;;4071818;29;19915;-82
2023/04/06 04:26:09;;;;;;;;;;;1.40;56.30;;;;;;4068563;29;19911;-82
2023/04/06 04:28:29;;;;;;;;;;;1.40;56.20;;;;;;4072038;29;19954;-82
2023/04/06 04:30:50;;;;;;;;;;;1.40;56.40;;;;;;4070147;29;19911;-83
2023/04/06 04:33:10;;;;;;;;;;;1.40;56.50;;;;;;4070310;29;20041;-83
2023/04/06 04:35:31;;;;;;;;;;;1.30;56.50;;;;;;4071230;29;19950;-81
2023/04/06 04:37:52;;;;;;;;;;;1.30;56.50;;;;;;4071298;29;19907;-83
2023/04/06 04:40:12;;;;;;;;;;;1.30;56.70;;;;;;4071356;29;19934;-82
2023/04/06 04:42:33;;;;;;;;;;;1.30;56.70;;;;;;4055716;29;19923;-83
2023/04/06 04:44:54;;;;;;;;;;;1.30;56.80;;;;;;4069510;29;19989;-83
2023/04/06 04:47:14;;;;;;;;;;;1.30;56.80;;;;;;4068811;29;19957;-83
2023/04/06 04:49:35;;;;;;;;;;;1.20;56.90;;;;;;4064153;29;19946;-83
2023/04/06 04:51:56;;;;;;;;;;;1.20;56.90;;;;;;4067701;29;19919;-83
2023/04/06 04:53:59;;;;;;;;;;;1.20;56.80;;;;;;4050254;29;19951;-83
2023/04/06 04:56:00;;;;;;;;;;;1.20;56.80;;;;;;4070731;29;20317;-83
2023/04/06 04:58:00;;;;;;;;;;;1.10;56.80;;;;;;4038903;29;19970;-82
2023/04/06 05:00:02;;;;;;;;;;;1.10;56.90;;;;;;4073047;29;19915;-81
2023/04/06 05:02:02;;;;;;;;;;;1.10;57.10;;;;;;4051564;29;19942;-82
2023/04/06 05:04:03;;;;;;;;;;;1.10;57.10;;;;;;4049222;29;19943;-83
2023/04/06 05:06:04;;;;;;;;;;;1.00;56.90;;;;;;4066204;29;19918;-82
2023/04/06 05:08:05;;;;;;;;;;;1.00;56.90;;;;;;4052341;29;19931;-83
2023/04/06 05:10:06;;;;;;;;;;;1.00;56.90;;;;;;4052582;29;20368;-82
2023/04/06 05:12:07;;;;;;;;;;;1.00;56.90;;;;;;4053223;29;19918;-83
2023/04/06 05:14:07;;;;;;;;;;;1.00;57.10;;;;;;4055152;29;19911;-82
2023/04/06 05:16:08;;;;;;;;;;;1.10;57.10;;;;;;4043256;29;19911;-82
2023/04/06 05:18:09;;;;;;;;;;;1.00;57.10;;;;;;4069004;29;20383;-82
2023/04/06 05:20:10;;;;;;;;;;;0.90;57.00;;;;;;4063097;29;20365;-82
2023/04/06 05:22:10;;;;;;;;;;;1.00;57.20;;;;;;4064959;29;20129;-82
2023/04/06 05:24:11;;;;;;;;;;;1.00;57.30;;;;;;4047454;29;20340;-82
2023/04/06 05:26:12;;;;;;;;;;;1.00;57.40;;;;;;4049275;29;20038;-81
2023/04/06 05:28:15;;;;;;;;;;;1.00;57.50;;;;;;4061060;29;19922;-83
2023/04/06 05:30:16;;;;;;;;;;;1.00;57.80;;;;;;4055447;29;20006;-80
2023/04/06 05:32:16;;;;;;;;;;;1.00;57.80;;;;;;4045363;29;20339;-82
2023/04/06 05:34:17;;;;;;;;;;;1.00;58.10;;;;;;4058845;29;20030;-82
2023/04/06 05:36:19;;;;;;;;;;;1.00;58.50;;;;;;4042151;29;19915;-81
2023/04/06 05:38:23;;;;;;;;;;;1.10;59.00;;;;;;4046247;29;20424;-81
2023/04/06 05:40:24;;;;;;;;;;;1.10;59.40;;;;;;4051127;29;19950;-81
2023/04/06 05:42:26;;;;;;;;;;;1.10;59.20;;;;;;4050069;29;19939;-82
2023/04/06 05:44:27;;;;;;;;;;;1.10;59.10;;;;;;4046705;29;19924;-84
2023/04/06 05:46:28;;;;;;;;;;;1.10;58.80;;;;;;4048348;29;19919;-83
2023/04/06 05:48:30;;;;;;;;;;;1.10;58.90;;;;;;4050640;29;19922;-82
2023/04/06 05:50:31;;;;;;;;;;;1.10;58.70;;;;;;4052473;29;20094;-82
2023/04/06 05:52:52;;;;;;;;;;;1.20;58.40;;;;;;4062516;29;19919;-82
2023/04/06 05:55:12;;;;;;;;;;;1.10;58.40;;;;;;4067505;29;19914;-84
2023/04/06 05:57:33;;;;;;;;;;;1.10;58.40;;;;;;4050255;29;19998;-84
2023/04/06 05:59:55;;;;;;;;;;;1.20;58.60;;;;;;4067850;29;19957;-81
2023/04/06 06:02:15;;;;;;;;;;;1.20;58.80;;;;;;4076474;29;19926;-83
2023/04/06 06:04:26;;;;;;;;;;;1.20;59.20;;;;;;4072930;29;19926;-82
2023/04/06 06:06:27;;;;;;;;;;;1.30;59.10;;;;;;4050076;29;19915;-83
2023/04/06 06:08:28;;;;;;;;;;;1.30;59.30;;;;;;4064354;29;19911;-83
2023/04/06 06:10:29;;;;;;;;;;;1.50;59.40;;;;;;4065384;29;19915;-82
2023/04/06 06:12:29;;;;;;;;;;;1.50;59.40;;;;;;4048469;29;19922;-82
2023/04/06 06:14:30;;;;;;;;;;;1.50;59.30;;;;;;4030156;29;19915;-83
2023/04/06 06:16:31;;;;;;;;;;;1.60;59.50;;;;;;4047738;29;19915;-83
2023/04/06 06:18:32;;;;;;;;;;;1.70;59.80;;;;;;4063823;29;19952;-82
2023/04/06 06:20:32;;;;;;;;;;;1.80;60.20;;;;;;4049181;29;19927;-83
2023/04/06 06:22:33;;;;;;;;;;;1.90;60.50;;;;;;4063558;29;20019;-83
2023/04/06 06:24:34;;;;;;;;;;;2.00;60.20;;;;;;4064094;29;20082;-82
2023/04/06 06:26:36;;;;;;;;;;;2.00;60.40;;;;;;4063953;29;20006;-83
2023/04/06 06:28:37;;;;;;;;;;;2.10;60.90;;;;;;4064926;29;19914;-84
2023/04/06 06:30:37;;;;;;;;;;;2.20;60.80;;;;;;4064793;29;19915;-84
2023/04/06 06:32:38;;;;;;;;;;;2.30;60.60;;;;;;4052611;29;20468;-83
2023/04/06 06:34:39;;;;;;;;;;;2.30;60.50;;;;;;4067029;29;19939;-83
2023/04/06 06:36:39;;;;;;;;;;;2.40;60.60;;;;;;4067120;29;19921;-83
2023/04/06 06:38:40;;;;;;;;;;;2.50;60.50;;;;;;4067000;29;19915;-84
2023/04/06 06:40:41;;;;;;;;;;;2.60;60.50;;;;;;4066306;29;19918;-83
2023/04/06 06:42:41;;;;;;;;;;;2.60;60.10;;;;;;4070141;29;19911;-83
2023/04/06 06:44:42;;;;;;;;;;;2.70;59.90;;;;;;4069430;29;19939;-82
2023/04/06 06:46:42;;;;;;;;;;;2.80;59.80;;;;;;4069254;29;19915;-83
2023/04/06 06:48:43;;;;;;;;;;;2.90;60.30;;;;;;4071466;29;20061;-83
2023/04/06 06:50:44;;;;;;;;;;;3.00;60.30;;;;;;4067500;29;20402;-83
2023/04/06 06:52:44;;;;;;;;;;;3.10;59.90;;;;;;4054491;29;20052;-83
2023/04/06 06:54:45;;;;;;;;;;;3.20;60.20;;;;;;4071261;29;19970;-83
2023/04/06 06:56:46;;;;;;;;;;;3.30;60.30;;;;;;4070921;29;19916;-83
2023/04/06 06:58:47;;;;;;;;;;;3.40;61.10;;;;;;4037275;29;19943;-83
2023/04/06 07:00:48;;;;;;;;;;;3.50;61.50;;;;;;4050088;29;19919;-81
2023/04/06 07:02:48;;;;;;;;;;;3.60;61.10;;;;;;4071098;29;19982;-82
2023/04/06 07:04:49;;;;;;;;;;;3.70;61.00;;;;;;4064128;29;19927;-81
2023/04/06 07:06:50;;;;;;;;;;;3.90;60.50;;;;;;4076579;29;19943;-82
2023/04/06 07:08:51;;;;;;;;;;;4.00;60.50;;;;;;4072447;29;19921;-83
2023/04/06 07:10:52;;;;;;;;;;;4.00;60.40;;;;;;4065270;29;20002;-82
2023/04/06 07:12:52;;;;;;;;;;;4.20;60.60;;;;;;4072801;29;19911;-82
2023/04/06 07:14:53;;;;;;;;;;;4.30;60.90;;;;;;4075303;29;19981;-82
2023/04/06 07:16:54;;;;;;;;;;;4.40;61.00;;;;;;4074889;29;20062;-82
2023/04/06 07:18:55;;;;;;;;;;;4.50;60.90;;;;;;4076677;29;19919;-82
2023/04/06 07:21:01;;;;;;;;;;;4.60;60.70;;;;;;4072435;29;20447;-83
2023/04/06 07:23:08;;;;;;;;;;;4.70;60.60;;;;;;4061603;29;20019;-82
2023/04/06 07:25:08;;;;;;;;;;;4.80;60.50;;;;;;4073132;29;19919;-82
2023/04/06 07:27:10;;;;;;;;;;;5.00;61.10;;;;;;4058613;29;19915;-82
2023/04/06 07:29:11;;;;;;;;;;;5.10;60.70;;;;;;4047107;29;19916;-83
2023/04/06 07:31:11;;;;;;;;;;;5.20;60.70;;;;;;4051126;29;19919;-82
2023/04/06 07:33:12;;;;;;;;;;;5.30;60.40;;;;;;4052548;29;19946;-83
2023/04/06 07:35:12;;;;;;;;;;;5.40;60.20;;;;;;4070058;29;19971;-82
2023/04/06 07:37:13;;;;;;;;;;;5.50;60.50;;;;;;4073291;29;19914;-82
2023/04/06 07:39:14;;;;;;;;;;;5.60;60.30;;;;;;4072111;29;19962;-82
2023/04/06 07:41:37;;;;;;;;;;;5.70;60.10;;;;;;4070601;29;19946;-83
2023/04/06 07:43:58;;;;;;;;;;;5.80;60.40;;;;;;4076310;29;21661;-80
2023/04/06 07:46:18;;;;;;;;;;;6.00;60.20;;;;;;4075129;29;19919;-82
2023/04/06 07:48:39;;;;;;;;;;;6.00;60.20;;;;;;4076233;29;19914;-82
2023/04/06 07:51:01;;;;;;;;;;;6.10;59.90;;;;;;4073790;29;19998;-82
2023/04/06 07:53:25;;;;;;;;;;;6.20;59.40;;;;;;4072687;29;19915;-82
2023/04/06 07:55:45;;;;;;;;;;;6.40;60.00;;;;;;4072205;29;19945;-82
2023/04/06 07:58:06;;;;;;;;;;;6.50;59.00;;;;;;4075631;29;19919;-82
2023/04/06 08:00:27;;;;;;;;;;;6.60;58.70;;;;;;4074758;29;19919;-82
2023/04/06 08:02:47;;;;;;;;;;;6.60;58.70;;;;;;4071171;29;19918;-83
2023/04/06 08:05:08;;;;;;;;;;;6.70;58.40;;;;;;4074992;29;19911;-82
2023/04/06 08:07:20;;;;;;;;;;;6.80;58.20;;;;;;4073124;29;19926;-82
2023/04/06 08:09:20;;;;;;;;;;;6.90;58.20;;;;;;4047303;29;19928;-82
2023/04/06 08:11:21;;;;;;;;;;;7.00;58.10;;;;;;4079483;23;19923;-81
2023/04/06 08:13:22;;;;;;;;;;;7.10;58.10;;;;;;4053518;29;19921;-81
2023/04/06 08:15:22;;;;;;;;;;;7.10;57.60;;;;;;4050990;29;19920;-83
2023/04/06 08:17:23;;;;;;;;;;;7.20;57.40;;;;;;4069114;29;20530;-81
2023/04/06 08:19:24;;;;;;;;;;;7.30;57.40;;;;;;4053008;29;20024;-83
2023/04/06 08:21:24;;;;;;;;;;;7.30;57.30;;;;;;4069286;29;21671;-82
2023/04/06 08:23:25;;;;;;;;;;;7.40;57.30;;;;;;4020297;29;19924;-82
2023/04/06 08:25:29;;;;;;;;;;;7.40;57.10;;;;;;4050729;29;19920;-83
2023/04/06 08:27:31;;;;;;;;;;;7.50;56.80;;;;;;4065032;29;20212;-83
2023/04/06 08:29:36;;;;;;;;;;;7.60;56.60;;;;;;4038779;29;19964;-81
2023/04/06 08:31:40;;;;;;;;;;;7.70;56.60;;;;;;4051692;29;19962;-82
2023/04/06 08:33:41;;;;;;;;;;;7.70;56.40;;;;;;4053324;29;19907;-82
2023/04/06 08:35:41;;;;;;;;;;;7.80;56.40;;;;;;4056032;29;19990;-82
2023/04/06 08:37:42;;;;;;;;;;;7.80;56.20;;;;;;4070471;29;19943;-81
2023/04/06 08:39:43;;;;;;;;;;;7.90;56.80;;;;;;4035185;29;19923;-83
2023/04/06 08:41:43;;;;;;;;;;;7.90;56.00;;;;;;4054011;29;19919;-81
2023/04/06 08:43:58;;;;;;;;;;;8.00;55.90;;;;;;4052102;29;19915;-82
2023/04/06 08:45:59;;;;;;;;;;;8.10;55.60;;;;;;4068879;29;19907;-82
2023/04/06 08:48:01;;;;;;;;;;;8.20;55.20;;;;;;4041742;29;19919;-82
2023/04/06 08:50:05;;;;;;;;;;;8.20;55.20;;;;;;4058291;29;19912;-82
2023/04/06 08:52:07;;;;;;;;;;;8.30;55.00;;;;;;4040890;29;19912;-82
2023/04/06 08:54:08;;;;;;;;;;;8.40;55.10;;;;;;4056080;29;19912;-82
2023/04/06 08:56:10;;;;;;;;;;;8.40;55.10;;;;;;4051467;29;20008;-81
2023/04/06 08:58:10;;;;;;;;;;;8.40;54.90;;;;;;4050682;29;19919;-82
2023/04/06 09:00:11;;;;;;;;;;;8.60;54.80;;;;;;4047902;29;19915;-80
2023/04/06 09:02:16;;;;;;;;;;;8.60;55.00;;;;;;4026261;29;19954;-82
2023/04/06 09:04:17;;;;;;;;;;;8.70;54.60;;;;;;4046516;29;19971;-83
2023/04/06 09:06:18;;;;;;;;;;;8.70;53.30;;;;;;4044966;29;19918;-81
2023/04/06 09:08:19;;;;;;;;;;;8.90;53.80;;;;;;4017996;29;20028;-82
2023/04/06 09:10:20;;;;;;;;;;;8.90;52.60;;;;;;4052364;29;19963;-82
2023/04/06 09:12:25;;;;;;;;;;;8.90;53.10;;;;;;4043031;29;20268;-81
2023/04/06 09:14:37;;;;;;;;;;;9.00;53.10;;;;;;4045744;29;19919;-83
2023/04/06 09:16:42;;;;;;;;;;;9.00;51.90;;;;;;4046114;29;19923;-81
2023/04/06 09:18:42;;;;;;;;;;;9.10;52.20;;;;;;4051000;29;19971;-81
2023/04/06 09:20:43;;;;;;;;;;;9.20;52.80;;;;;;4050141;29;19975;-82
2023/04/06 09:22:43;;;;;;;;;;;9.20;52.10;;;;;;4049348;29;19954;-82
2023/04/06 09:24:45;;;;;;;;;;;9.30;51.90;;;;;;4046618;29;19974;-81
2023/04/06 09:26:46;;;;;;;;;;;9.30;50.70;;;;;;4058387;29;20281;-82
2023/04/06 09:28:49;;;;;;;;;;;9.40;51.60;;;;;;4046392;29;19919;-81
2023/04/06 09:30:50;;;;;;;;;;;9.40;51.70;;;;;;4059022;29;19918;-83
2023/04/06 09:32:52;;;;;;;;;;;9.50;51.30;;;;;;4034537;29;19912;-82
2023/04/06 09:34:53;;;;;;;;;;;9.50;51.30;;;;;;4037324;29;19916;-80
2023/04/06 09:36:54;;;;;;;;;;;9.60;51.70;;;;;;4065003;29;20026;-80
2023/04/06 09:38:57;;;;;;;;;;;9.60;51.60;;;;;;4055536;29;20104;-80
2023/04/06 09:41:31;;;;;;;;;;;9.60;51.40;;;;;;4047671;29;20675;-81
2023/04/06 09:43:39;;;;;;;;;;;9.70;51.50;;;;;;4051648;29;19907;-83
2023/04/06 09:46:00;;;;;;;;;;;9.80;51.10;;;;;;4062239;29;19918;-81
2023/04/06 09:48:21;;;;;;;;;;;9.80;51.00;;;;;;4050034;29;19916;-81
2023/04/06 09:50:42;;;;;;;;;;;9.90;49.50;;;;;;4047214;29;19923;-81
2023/04/06 09:53:06;;;;;;;;;;;9.90;50.30;;;;;;4036672;29;19998;-82
2023/04/06 09:55:33;;;;;;;;;;;10.00;50.50;;;;;;4052620;29;19921;-81
2023/04/06 09:58:09;;;;;;;;;;;10.00;50.20;;;;;;4058837;29;19915;-80
2023/04/06 10:00:32;;;;;;;;;;;10.10;50.40;;;;;;4041433;29;19963;-81
2023/04/06 10:02:52;;;;;;;;;;;10.10;50.00;;;;;;4055243;29;19926;-82
2023/04/06 10:05:19;;;;;;;;;;;10.10;47.40;;;;;;4054861;29;19982;-82
2023/04/06 10:07:40;;;;;;;;;;;10.20;48.10;;;;;;4051240;29;19919;-82
2023/04/06 10:10:02;;;;;;;;;;;10.20;48.30;;;;;;4052579;29;19922;-83
2023/04/06 10:12:22;;;;;;;;;;;10.20;47.60;;;;;;4048887;29;20409;-81
2023/04/06 10:14:23;;;;;;;;;;;10.20;47.50;;;;;;4032584;29;19955;-81
2023/04/06 10:16:25;;;;;;;;;;;10.20;48.30;;;;;;4036020;29;19912;-81
2023/04/06 10:18:26;;;;;;;;;;;10.30;48.90;;;;;;4045463;29;19954;-83
2023/04/06 10:20:29;;;;;;;;;;;10.30;48.80;;;;;;4063684;29;19919;-83
2023/04/06 10:22:34;;;;;;;;;;;10.30;49.30;;;;;;4046576;29;19927;-83
2023/04/06 10:24:35;;;;;;;;;;;10.40;48.70;;;;;;4045938;29;19916;-83
2023/04/06 10:26:36;;;;;;;;;;;10.40;48.70;;;;;;4063632;29;20017;-82
2023/04/06 10:28:41;;;;;;;;;;;10.40;48.70;;;;;;4047814;29;19912;-82
2023/04/06 10:30:42;;;;;;;;;;;10.50;49.00;;;;;;4052521;29;19915;-83
2023/04/06 10:32:42;;;;;;;;;;;10.50;48.80;;;;;;4053343;29;19931;-82
2023/04/06 10:34:43;;;;;;;;;;;10.50;48.50;;;;;;4062733;29;19911;-84
2023/04/06 10:36:44;;;;;;;;;;;10.60;48.10;;;;;;4035286;29;19912;-82
2023/04/06 10:38:45;;;;;;;;;;;10.60;48.60;;;;;;4054130;29;20620;-81
2023/04/06 10:40:48;;;;;;;;;;;10.50;47.60;;;;;;4062406;29;19927;-82
2023/04/06 10:42:49;;;;;;;;;;;10.50;46.80;;;;;;4051281;29;19926;-81
2023/04/06 10:44:50;;;;;;;;;;;10.40;46.50;;;;;;4059698;29;19919;-82
2023/04/06 10:46:57;;;;;;;;;;;10.40;47.30;;;;;;4046771;29;19919;-82
2023/04/06 10:48:58;;;;;;;;;;;10.50;47.80;;;;;;4047363;29;19973;-81
2023/04/06 10:50:59;;;;;;;;;;;10.50;47.60;;;;;;4042519;29;20082;-81
2023/04/06 10:53:01;;;;;;;;;;;10.50;48.30;;;;;;4018678;29;19919;-80
2023/04/06 10:55:01;;;;;;;;;;;10.50;48.40;;;;;;4025437;29;19915;-80
2023/04/06 10:57:02;;;;;;;;;;;10.50;48.30;;;;;;4064482;29;19911;-81
2023/04/06 10:59:03;;;;;;;;;;;10.50;48.20;;;;;;4049758;29;19911;-81
2023/04/06 11:01:04;;;;;;;;;;;10.50;48.40;;;;;;4030770;29;20037;-81
2023/04/06 11:03:05;;;;;;;;;;;10.50;48.90;;;;;;4047599;29;19908;-82
2023/04/06 11:05:05;;;;;;;;;;;10.50;49.00;;;;;;4046701;29;20015;-81
2023/04/06 11:07:06;;;;;;;;;;;10.40;49.00;;;;;;4065252;29;19923;-81
2023/04/06 11:09:08;;;;;;;;;;;10.50;49.30;;;;;;4032686;29;19912;-82
2023/04/06 11:11:10;;;;;;;;;;;10.40;48.90;;;;;;4030962;29;19912;-80
2023/04/06 11:13:10;;;;;;;;;;;10.20;48.80;;;;;;4050642;29;19911;-84
2023/04/06 11:15:11;;;;;;;;;;;10.00;49.60;;;;;;4048414;29;19912;-83
2023/04/06 11:17:12;;;;;;;;;;;10.00;50.10;;;;;;4053972;29;19911;-83
2023/04/06 11:19:12;;;;;;;;;;;9.90;49.60;;;;;;4026282;29;20000;-81
2023/04/06 11:21:13;;;;;;;;;;;9.90;49.70;;;;;;4040600;29;20014;-83
2023/04/06 11:23:21;;;;;;;;;;;9.90;50.90;;;;;;4044209;29;19912;-83
2023/04/06 11:25:22;;;;;;;;;;;9.80;50.50;;;;;;4045252;29;19963;-82
2023/04/06 11:27:23;;;;;;;;;;;9.80;50.60;;;;;;4032856;29;19915;-81
2023/04/06 11:29:25;;;;;;;;;;;9.80;50.50;;;;;;4050872;29;20010;-83
2023/04/06 11:31:26;;;;;;;;;;;9.90;50.60;;;;;;4061446;29;20350;-83
2023/04/06 11:33:27;;;;;;;;;;;9.80;49.70;;;;;;4014659;29;19912;-82
2023/04/06 11:35:30;;;;;;;;;;;9.70;49.60;;;;;;4043800;29;19995;-81
2023/04/06 11:37:32;;;;;;;;;;;9.80;49.50;;;;;;4048093;29;19940;-82
2023/04/06 11:39:37;;;;;;;;;;;9.80;50.40;;;;;;4051094;29;20719;-82
2023/04/06 11:41:38;;;;;;;;;;;9.90;49.20;;;;;;4064147;29;19922;-81
2023/04/06 11:43:45;;;;;;;;;;;9.90;49.20;;;;;;4035877;29;19951;-81
2023/04/06 11:45:46;;;;;;;;;;;9.90;49.90;;;;;;4064790;29;20382;-83
2023/04/06 11:47:55;;;;;;;;;;;10.00;49.50;;;;;;4053415;29;19982;-82
2023/04/06 11:49:59;;;;;;;;;;;10.00;49.60;;;;;;4030019;29;19938;-82
2023/04/06 11:52:00;;;;;;;;;;;10.00;49.00;;;;;;4045804;29;20449;-83
2023/04/06 11:54:01;;;;;;;;;;;10.10;49.30;;;;;;4049104;29;19926;-81
2023/04/06 11:56:01;;;;;;;;;;;10.00;49.20;;;;;;4034554;29;19912;-83
2023/04/06 11:58:02;;;;;;;;;;;10.00;50.00;;;;;;4061355;29;19915;-82
2023/04/06 12:00:04;;;;;;;;;;;10.00;49.50;;;;;;4045342;29;20007;-81
2023/04/06 12:02:24;;;;;;;;;;;10.00;50.00;;;;;;4048327;29;19939;-83
2023/04/06 12:04:26;;;;;;;;;;;9.90;50.60;;;;;;4062665;29;19915;-83
2023/04/06 12:06:46;;;;;;;;;;;9.90;51.30;;;;;;4038581;29;19967;-82
2023/04/06 12:09:07;;;;;;;;;;;10.00;51.60;;;;;;4060534;29;20002;-84
2023/04/06 12:11:27;;;;;;;;;;;10.10;50.80;;;;;;4194195;23;19950;-81